createdAt,value
2023-04-19T00:00:08.354Z,102938.28
2023-04-19T00:02:35.702Z,102937.41
2023-04-19T00:05:02.969Z,102930.59
2023-04-19T00:07:29.446Z,102929.69
2023-04-19T00:09:55.815Z,102931.41
2023-04-19T00:12:22.471Z,102927.94
2023-04-19T00:14:48.877Z,102927.09
2023-04-19T00:17:15.353Z,102935.63
2023-04-19T00:19:41.984Z,102929.63
2023-04-19T00:22:08.365Z,102935.59
2023-04-19T00:24:35.310Z,102937.28
2023-04-19T00:27:02.394Z,102930.44
2023-04-19T00:29:28.921Z,102929.53
2023-04-19T00:31:55.369Z,102929.53
2023-04-19T00:34:21.813Z,102929.53
2023-04-19T00:36:48.271Z,102933.78
2023-04-19T00:39:15.565Z,102928.63
2023-04-19T00:41:41.978Z,102927.72
2023-04-19T00:44:08.391Z,102923.41
2023-04-19T00:46:37.684Z,102924.22
2023-04-19T00:49:04.654Z,102919.06
2023-04-19T00:51:31.395Z,102913.09
2023-04-19T00:53:58.478Z,102909.66
2023-04-19T00:56:27.239Z,102914.72
2023-04-19T00:58:54.295Z,102910.44
2023-04-19T01:01:20.782Z,102911.28
2023-04-19T01:03:47.762Z,102918.06
2023-04-19T01:06:14.764Z,102902.69
2023-04-19T01:08:41.252Z,102906.13
2023-04-19T01:11:10.584Z,102906.13
2023-04-19T01:13:37.078Z,102901.00
2023-04-19T01:16:03.701Z,102901.88
2023-04-19T01:18:35.620Z,102897.63
2023-04-19T01:21:01.992Z,102901.06
2023-04-19T01:23:28.418Z,102906.19
2023-04-19T01:25:54.831Z,102904.47
2023-04-19T01:28:21.263Z,102901.91
2023-04-19T01:30:50.880Z,102901.94
2023-04-19T01:33:17.459Z,102896.00
2023-04-19T01:35:43.805Z,102904.53
2023-04-19T01:38:10.293Z,102903.69
2023-04-19T01:40:36.825Z,102910.53
2023-04-19T01:43:03.379Z,102902.03
2023-04-19T01:45:29.862Z,102892.66
2023-04-19T01:47:56.689Z,102896.97
2023-04-19T01:50:23.581Z,102896.97
2023-04-19T01:52:49.984Z,102894.44
2023-04-19T01:55:16.442Z,102906.41
2023-04-19T01:57:42.811Z,102902.16
2023-04-19T02:00:11.041Z,102908.16
2023-04-19T02:02:38.644Z,102904.75
2023-04-19T02:05:06.768Z,102902.19
2023-04-19T02:07:33.193Z,102899.66
2023-04-19T02:10:00.320Z,102903.91
2023-04-19T02:12:31.115Z,102893.69
2023-04-19T02:14:58.048Z,102898.81
2023-04-19T02:17:24.923Z,102897.13
2023-04-19T02:19:51.990Z,102895.44
2023-04-19T02:22:19.098Z,102892.88
2023-04-19T02:24:45.937Z,102892.06
2023-04-19T02:27:12.325Z,102888.66
2023-04-19T02:29:39.268Z,102901.47
2023-04-19T02:32:07.053Z,102893.78
2023-04-19T02:34:34.455Z,102893.81
2023-04-19T02:37:01.352Z,102897.22
2023-04-19T02:39:27.886Z,102900.66
2023-04-19T02:41:55.459Z,102904.09
2023-04-19T02:44:22.316Z,102901.53
2023-04-19T02:46:52.464Z,102904.94
2023-04-19T02:49:19.937Z,102909.22
2023-04-19T02:51:46.577Z,102904.97
2023-04-19T02:54:13.510Z,102902.41
2023-04-19T02:56:40.069Z,102908.38
2023-04-19T02:59:06.591Z,102902.44
2023-04-19T03:01:33.233Z,102906.69
2023-04-19T03:03:59.842Z,102906.69
2023-04-19T03:06:26.273Z,102905.84
2023-04-19T03:08:52.684Z,102897.31
2023-04-19T03:11:19.263Z,102900.72
2023-04-19T03:13:45.688Z,102899.00
2023-04-19T03:16:12.435Z,102900.72
2023-04-19T03:18:38.839Z,102894.75
2023-04-19T03:21:05.507Z,102897.34
2023-04-19T03:23:31.906Z,102899.91
2023-04-19T03:25:58.387Z,102901.63
2023-04-19T03:28:24.843Z,102897.34
2023-04-19T03:30:51.290Z,102894.78
2023-04-19T03:33:17.726Z,102891.38
2023-04-19T03:35:44.741Z,102891.38
2023-04-19T03:38:11.269Z,102891.41
2023-04-19T03:40:38.811Z,102882.00
2023-04-19T03:43:05.251Z,102887.13
2023-04-19T03:45:31.651Z,102888.84
2023-04-19T03:47:58.826Z,102888.00
2023-04-19T03:50:26.498Z,102890.56
2023-04-19T03:52:53.863Z,102886.28
2023-04-19T03:55:20.220Z,102889.66
2023-04-19T03:57:46.621Z,102887.91
2023-04-19T04:00:13.495Z,102887.03
2023-04-19T04:02:40.126Z,102875.88
2023-04-19T04:05:07.199Z,102879.25
2023-04-19T04:07:33.652Z,102878.41
2023-04-19T04:10:00.502Z,102875.84
2023-04-19T04:12:26.965Z,102888.66
2023-04-19T04:14:53.346Z,102877.50
2023-04-19T04:17:19.740Z,102888.59
2023-04-19T04:19:46.538Z,102885.16
2023-04-19T04:22:12.919Z,102882.59
2023-04-19T04:24:41.310Z,102876.59
2023-04-19T04:27:10.159Z,102885.09
2023-04-19T04:29:37.994Z,102892.72
2023-04-19T04:32:08.256Z,102890.16
2023-04-19T04:34:35.797Z,102887.59
2023-04-19T04:37:02.852Z,102887.56
2023-04-19T04:39:30.345Z,102885.81
2023-04-19T04:41:57.797Z,102892.63
2023-04-19T04:44:24.600Z,102893.44
2023-04-19T04:46:51.205Z,102890.00
2023-04-19T04:49:17.595Z,102891.66
2023-04-19T04:51:44.044Z,102883.97
2023-04-19T04:54:10.443Z,102890.78
2023-04-19T04:56:36.915Z,102890.75
2023-04-19T04:59:03.375Z,102889.03
2023-04-19T05:01:30.685Z,102890.69
2023-04-19T05:03:57.157Z,102898.38
2023-04-19T05:06:23.872Z,102900.91
2023-04-19T05:08:50.462Z,102895.78
2023-04-19T05:11:17.194Z,102899.22
2023-04-19T05:13:43.642Z,102898.34
2023-04-19T05:16:10.219Z,102899.22
2023-04-19T05:18:36.652Z,102894.09
2023-04-19T05:21:03.136Z,102900.91
2023-04-19T05:23:29.550Z,102897.50
2023-04-19T05:25:55.958Z,102897.50
2023-04-19T05:28:22.552Z,102907.72
2023-04-19T05:30:48.919Z,102910.28
2023-04-19T05:33:15.331Z,102900.03
2023-04-19T05:35:41.690Z,102907.72
2023-04-19T05:38:08.088Z,102902.63
2023-04-19T05:40:35.598Z,102894.13
2023-04-19T05:43:02.015Z,102909.50
2023-04-19T05:45:28.493Z,102909.56
2023-04-19T05:47:54.928Z,102910.53
2023-04-19T05:50:21.467Z,102904.63
2023-04-19T05:52:47.955Z,102901.28
2023-04-19T05:55:14.425Z,102907.28
2023-04-19T05:57:40.903Z,102907.34
2023-04-19T06:00:09.673Z,102899.72
2023-04-19T06:02:36.765Z,102906.59
2023-04-19T06:05:10.010Z,102906.63
2023-04-19T06:07:40.710Z,102905.81
2023-04-19T06:10:10.000Z,102909.31
2023-04-19T06:12:36.466Z,102909.34
2023-04-19T06:15:03.085Z,102910.28
2023-04-19T06:17:32.277Z,102911.16
2023-04-19T06:19:59.080Z,102906.91
2023-04-19T06:22:25.526Z,102914.63
2023-04-19T06:24:51.909Z,102914.66
2023-04-19T06:27:18.324Z,102915.56
2023-04-19T06:29:44.722Z,102910.44
2023-04-19T06:32:11.273Z,102906.16
2023-04-19T06:34:40.404Z,102917.28
2023-04-19T06:37:07.396Z,102916.41
2023-04-19T06:39:33.786Z,102920.69
2023-04-19T06:42:00.202Z,102921.59
2023-04-19T06:44:26.881Z,102919.94
2023-04-19T06:46:53.284Z,102909.72
2023-04-19T06:49:19.729Z,102917.41
2023-04-19T06:51:46.742Z,102907.16
2023-04-19T06:54:13.141Z,102910.59
2023-04-19T06:56:45.535Z,102909.72
2023-04-19T06:59:24.474Z,102911.41
2023-04-19T07:01:50.939Z,102899.38
2023-04-19T07:04:17.755Z,102910.47
2023-04-19T07:06:48.927Z,102907.88
2023-04-19T07:09:17.481Z,102900.97
2023-04-19T07:11:44.556Z,102915.50
2023-04-19T07:14:11.624Z,102899.97
2023-04-19T07:16:38.134Z,102910.97
2023-04-19T07:19:04.557Z,102899.78
2023-04-19T07:21:33.426Z,102906.72
2023-04-19T07:24:00.205Z,102899.78
2023-04-19T07:26:27.457Z,102903.97
2023-04-19T07:28:53.961Z,102907.41
2023-04-19T07:31:21.100Z,102909.09
2023-04-19T07:33:47.831Z,102909.00
2023-04-19T07:36:14.332Z,102897.84
2023-04-19T07:38:41.113Z,102908.91
2023-04-19T07:41:07.629Z,102901.19
2023-04-19T07:43:34.072Z,102893.31
2023-04-19T07:46:01.144Z,102903.44
2023-04-19T07:48:27.674Z,102904.25
2023-04-19T07:50:54.217Z,102906.75
2023-04-19T07:53:20.713Z,102915.16
2023-04-19T07:55:47.500Z,102920.16
2023-04-19T07:58:13.838Z,102914.03
2023-04-19T08:00:40.321Z,102914.06
2023-04-19T08:03:07.018Z,102908.81
2023-04-19T08:05:34.355Z,102916.50
2023-04-19T08:08:01.117Z,102924.03
2023-04-19T08:10:28.952Z,102912.78
2023-04-19T08:13:05.095Z,102913.56
2023-04-19T08:18:05.059Z,102904.22
2023-04-19T08:20:32.441Z,102908.38
2023-04-19T08:23:04.608Z,102910.94
2023-04-19T08:25:33.842Z,102916.75
2023-04-19T08:28:01.592Z,102905.09
2023-04-19T08:30:28.254Z,102905.88
2023-04-19T08:32:57.135Z,102908.38
2023-04-19T08:35:25.199Z,102916.31
2023-04-19T08:37:51.743Z,102905.97
2023-04-19T08:40:18.586Z,102905.75
2023-04-19T08:42:46.393Z,102901.22
2023-04-19T08:45:27.721Z,102896.03
2023-04-19T08:48:01.269Z,102897.91
2023-04-19T08:53:12.013Z,102888.03
2023-04-19T08:56:06.795Z,102895.16
2023-04-19T09:01:12.812Z,102900.63
2023-04-19T09:03:56.094Z,102896.88
2023-04-19T09:06:27.948Z,102890.84
2023-04-19T09:09:28.513Z,102893.94
2023-04-19T09:12:00.370Z,102891.13
2023-04-19T09:14:28.586Z,102884.06
2023-04-19T09:17:17.380Z,102889.16
2023-04-19T09:19:48.275Z,102886.78
2023-04-19T09:22:15.709Z,102882.63
2023-04-19T09:27:12.267Z,102893.88
2023-04-19T09:29:38.988Z,102884.00
2023-04-19T09:32:06.091Z,102882.75
2023-04-19T09:34:32.528Z,102880.00
2023-04-19T09:37:20.817Z,102885.72
2023-04-19T09:39:54.794Z,102877.09
2023-04-19T09:42:38.454Z,102880.78
2023-04-19T09:47:38.161Z,102874.09
2023-04-19T09:50:21.390Z,102869.72
2023-04-19T09:52:50.650Z,102875.03
2023-04-19T09:55:26.807Z,102863.75
2023-04-19T09:57:54.978Z,102870.16
2023-04-19T10:00:23.627Z,102879.16
2023-04-19T10:02:58.763Z,102872.09
2023-04-19T10:05:25.853Z,102860.00
2023-04-19T10:07:55.658Z,102877.09
2023-04-19T10:10:41.169Z,102865.97
2023-04-19T10:13:19.706Z,102856.47
2023-04-19T10:15:52.507Z,102858.09
2023-04-19T10:18:22.530Z,102859.53
2023-04-19T10:21:03.184Z,102858.25
2023-04-19T10:23:31.680Z,102848.47
2023-04-19T10:25:58.564Z,102852.53
2023-04-19T10:28:28.096Z,102856.00
2023-04-19T10:31:01.604Z,102859.56
2023-04-19T10:33:31.592Z,102838.81
2023-04-19T10:35:59.824Z,102839.41
2023-04-19T10:38:48.248Z,102839.69
2023-04-19T10:41:22.064Z,102842.66
2023-04-19T10:43:58.101Z,102818.78
2023-04-19T10:46:26.034Z,102844.09
2023-04-19T10:49:00.837Z,102838.66
2023-04-19T10:51:28.499Z,102839.31
2023-04-19T10:53:59.921Z,102832.19
2023-04-19T10:56:32.407Z,102831.53
2023-04-19T10:59:02.154Z,102831.09
2023-04-19T11:01:37.139Z,102827.78
2023-04-19T11:04:04.154Z,102831.84
2023-04-19T11:06:31.017Z,102822.84
2023-04-19T11:08:57.911Z,102825.47
2023-04-19T11:11:29.941Z,102822.25
2023-04-19T11:13:57.949Z,102811.00
2023-04-19T11:16:34.280Z,102815.97
2023-04-19T11:19:08.690Z,102798.66
2023-04-19T11:21:40.741Z,102798.88
2023-04-19T11:24:11.204Z,102793.97
2023-04-19T11:26:37.951Z,102795.47
2023-04-19T11:29:06.218Z,102790.19
2023-04-19T11:31:33.478Z,102783.78
2023-04-19T11:34:03.377Z,102789.28
2023-04-19T11:36:32.198Z,102784.59
2023-04-19T11:38:58.696Z,102773.38
2023-04-19T11:41:25.229Z,102759.53
2023-04-19T11:43:52.028Z,102757.00
2023-04-19T11:46:21.418Z,102777.72
2023-04-19T11:48:56.406Z,102778.03
2023-04-19T11:51:23.640Z,102765.69
2023-04-19T11:53:50.136Z,102760.50
2023-04-19T11:56:16.866Z,102745.22
2023-04-19T11:58:49.166Z,102749.53
2023-04-19T12:01:22.312Z,102745.72
2023-04-19T12:03:51.264Z,102746.56
2023-04-19T12:06:25.733Z,102751.94
2023-04-19T12:08:57.186Z,102756.25
2023-04-19T12:11:42.842Z,102749.31
2023-04-19T12:14:13.834Z,102752.88
2023-04-19T12:16:40.891Z,102752.34
2023-04-19T12:19:15.849Z,102748.47
2023-04-19T12:21:43.193Z,102752.47
2023-04-19T12:24:10.011Z,102742.41
2023-04-19T12:26:36.792Z,102744.22
2023-04-19T12:29:03.853Z,102738.88
2023-04-19T12:31:33.576Z,102738.25
2023-04-19T12:34:00.250Z,102725.00
2023-04-19T12:36:26.816Z,102716.69
2023-04-19T12:38:53.225Z,102736.81
2023-04-19T12:41:19.691Z,102730.72
2023-04-19T12:43:46.085Z,102721.63
2023-04-19T12:46:12.580Z,102722.56
2023-04-19T12:48:39.706Z,102724.19
2023-04-19T12:51:06.124Z,102715.41
2023-04-19T12:53:33.222Z,102715.66
2023-04-19T12:55:59.975Z,102708.44
2023-04-19T12:58:28.494Z,102706.88
2023-04-19T13:00:55.317Z,102693.41
2023-04-19T13:03:21.856Z,102709.22
2023-04-19T13:05:49.035Z,102702.63
2023-04-19T13:08:15.779Z,102695.94
2023-04-19T13:10:42.174Z,102694.44
2023-04-19T13:13:08.961Z,102676.69
2023-04-19T13:15:35.800Z,102663.63
2023-04-19T13:18:02.280Z,102667.91
2023-04-19T13:20:29.192Z,102674.81
2023-04-19T13:22:55.589Z,102672.31
2023-04-19T13:25:22.561Z,102656.09
2023-04-19T13:27:49.165Z,102658.78
2023-04-19T13:30:18.628Z,102656.88
2023-04-19T13:32:45.112Z,102658.00
2023-04-19T13:35:11.695Z,102647.56
2023-04-19T13:37:40.222Z,102637.81
2023-04-19T13:40:19.486Z,102640.69
2023-04-19T13:42:46.611Z,102642.38
2023-04-19T13:45:14.067Z,102638.69
2023-04-19T13:47:40.531Z,102633.19
2023-04-19T13:50:07.690Z,102636.53
2023-04-19T13:52:34.453Z,102618.38
2023-04-19T13:55:01.106Z,102624.66
2023-04-19T13:57:27.500Z,102617.69
2023-04-19T13:59:53.853Z,102613.91
2023-04-19T14:02:20.507Z,102614.88
2023-04-19T14:04:47.273Z,102608.00
2023-04-19T14:07:14.211Z,102603.53
2023-04-19T14:09:45.023Z,102600.25
2023-04-19T14:12:11.533Z,102595.94
2023-04-19T14:14:37.980Z,102586.22
2023-04-19T14:17:04.384Z,102583.28
2023-04-19T14:19:30.805Z,102582.25
2023-04-19T14:21:57.482Z,102575.81
2023-04-19T14:24:23.912Z,102573.50
2023-04-19T14:26:59.948Z,102572.41
2023-04-19T14:29:33.491Z,102564.38
2023-04-19T14:32:13.495Z,102564.91
2023-04-19T14:34:49.905Z,102561.38
2023-04-19T14:37:16.433Z,102545.84
2023-04-19T14:39:44.585Z,102557.50
2023-04-19T14:42:11.224Z,102563.63
2023-04-19T14:44:38.249Z,102559.81
2023-04-19T14:47:04.655Z,102544.31
2023-04-19T14:49:31.057Z,102545.75
2023-04-19T14:51:57.444Z,102546.59
2023-04-19T14:54:23.873Z,102545.53
2023-04-19T14:56:50.531Z,102534.22
2023-04-19T14:59:17.339Z,102533.28
2023-04-19T15:01:43.988Z,102537.38
2023-04-19T15:04:10.872Z,102530.44
2023-04-19T15:06:37.352Z,102527.59
2023-04-19T15:09:03.937Z,102521.41
2023-04-19T15:11:30.671Z,102529.53
2023-04-19T15:13:57.020Z,102526.28
2023-04-19T15:16:23.803Z,102523.97
2023-04-19T15:18:50.399Z,102519.50
2023-04-19T15:21:20.504Z,102527.47
2023-04-19T15:23:48.981Z,102517.34
2023-04-19T15:26:16.383Z,102525.66
2023-04-19T15:28:42.917Z,102516.19
2023-04-19T15:31:10.250Z,102523.97
2023-04-19T15:33:36.956Z,102509.91
2023-04-19T15:36:04.063Z,102509.03
2023-04-19T15:38:31.673Z,102489.75
2023-04-19T15:40:59.154Z,102510.34
2023-04-19T15:43:25.724Z,102511.53
2023-04-19T15:45:52.249Z,102506.38
2023-04-19T15:48:18.818Z,102502.84
2023-04-19T15:50:45.219Z,102501.13
2023-04-19T15:53:11.961Z,102502.06
2023-04-19T15:55:40.060Z,102507.81
2023-04-19T15:58:06.537Z,102497.53
2023-04-19T16:00:33.085Z,102493.13
2023-04-19T16:02:59.586Z,102507.16
2023-04-19T16:05:26.250Z,102495.59
2023-04-19T16:08:02.878Z,102494.47
2023-04-19T16:10:29.361Z,102502.00
2023-04-19T16:12:55.853Z,102494.94
2023-04-19T16:15:22.586Z,102496.97
2023-04-19T16:17:49.029Z,102495.78
2023-04-19T16:20:15.792Z,102489.81
2023-04-19T16:22:42.178Z,102486.13
2023-04-19T16:25:11.277Z,102489.38
2023-04-19T16:27:42.376Z,102480.16
2023-04-19T16:30:13.691Z,102471.72
2023-04-19T16:32:41.583Z,102486.72
2023-04-19T16:35:08.392Z,102484.91
2023-04-19T16:37:35.887Z,102491.13
2023-04-19T16:40:10.729Z,102487.81
2023-04-19T16:42:43.556Z,102487.19
2023-04-19T16:45:11.118Z,102483.13
2023-04-19T16:47:37.831Z,102485.06
2023-04-19T16:50:06.165Z,102475.75
2023-04-19T16:52:34.379Z,102470.84
2023-04-19T16:55:03.722Z,102480.69
2023-04-19T16:57:31.867Z,102469.28
2023-04-19T16:59:58.557Z,102472.88
2023-04-19T17:02:25.152Z,102472.19
2023-04-19T17:04:51.965Z,102472.88
2023-04-19T17:07:18.569Z,102479.03
2023-04-19T17:09:45.128Z,102482.75
2023-04-19T17:12:14.608Z,102473.22
2023-04-19T17:14:41.095Z,102480.41
2023-04-19T17:17:07.619Z,102483.88
2023-04-19T17:19:34.030Z,102474.34
2023-04-19T17:22:05.420Z,102473.03
2023-04-19T17:24:36.145Z,102469.03
2023-04-19T17:27:02.697Z,102473.31
2023-04-19T17:29:29.150Z,102466.63
2023-04-19T17:31:56.233Z,102456.50
2023-04-19T17:34:22.813Z,102471.59
2023-04-19T17:36:49.542Z,102461.41
2023-04-19T17:39:16.134Z,102465.59
2023-04-19T17:41:43.936Z,102455.28
2023-04-19T17:44:11.853Z,102461.44
2023-04-19T17:46:39.414Z,102466.44
2023-04-19T17:49:06.036Z,102477.25
2023-04-19T17:51:32.611Z,102472.00
2023-04-19T17:53:58.994Z,102476.06
2023-04-19T17:56:25.397Z,102469.69
2023-04-19T17:58:51.772Z,102469.84
2023-04-19T18:01:18.211Z,102475.28
2023-04-19T18:03:45.569Z,102466.88
2023-04-19T18:06:12.618Z,102469.69
2023-04-19T18:08:39.043Z,102469.84
2023-04-19T18:11:06.843Z,102466.50
2023-04-19T18:13:33.217Z,102468.38
2023-04-19T18:15:59.726Z,102468.69
2023-04-19T18:18:26.286Z,102468.06
2023-04-19T18:20:53.137Z,102469.19
2023-04-19T18:23:19.550Z,102486.56
2023-04-19T18:25:53.279Z,102479.00
2023-04-19T18:28:22.954Z,102480.75
2023-04-19T18:30:49.797Z,102489.59
2023-04-19T18:33:16.402Z,102479.38
2023-04-19T18:35:42.923Z,102485.72
2023-04-19T18:38:09.776Z,102491.00
2023-04-19T18:40:36.312Z,102495.34
2023-04-19T18:43:02.887Z,102495.44
2023-04-19T18:45:29.436Z,102504.19
2023-04-19T18:47:55.985Z,102500.97
2023-04-19T18:50:22.724Z,102503.63
2023-04-19T18:52:49.087Z,102498.59
2023-04-19T18:55:16.045Z,102505.47
2023-04-19T18:57:42.724Z,102511.56
2023-04-19T19:00:11.051Z,102515.09
2023-04-19T19:02:40.416Z,102514.28
2023-04-19T19:05:08.683Z,102515.19
2023-04-19T19:07:37.243Z,102525.63
2023-04-19T19:10:16.819Z,102520.66
2023-04-19T19:12:46.116Z,102524.16
2023-04-19T19:15:13.554Z,102526.00
2023-04-19T19:17:40.017Z,102531.19
2023-04-19T19:20:07.297Z,102532.94
2023-04-19T19:22:34.079Z,102539.09
2023-04-19T19:25:01.169Z,102541.75
2023-04-19T19:27:27.701Z,102545.28
2023-04-19T19:29:54.481Z,102539.34
2023-04-19T19:32:21.328Z,102554.94
2023-04-19T19:34:55.612Z,102561.84
2023-04-19T19:37:27.437Z,102556.78
2023-04-19T19:39:56.366Z,102555.16
2023-04-19T19:42:23.648Z,102563.78
2023-04-19T19:44:54.309Z,102568.16
2023-04-19T19:47:21.735Z,102565.63
2023-04-19T19:50:20.257Z,102561.41
2023-04-19T19:52:35.933Z,102566.59
2023-04-19T19:55:02.395Z,102567.50
2023-04-19T20:00:19.658Z,102565.91
2023-04-19T20:02:54.601Z,102580.53
2023-04-19T20:05:23.085Z,102575.44
2023-04-19T20:10:19.569Z,102586.66
2023-04-19T20:12:47.551Z,102586.69
2023-04-19T20:15:14.084Z,102585.00
2023-04-19T20:17:41.113Z,102585.88
2023-04-19T20:20:09.007Z,102592.75
2023-04-19T20:22:36.157Z,102596.19
2023-04-19T20:25:02.751Z,102592.81
2023-04-19T20:27:29.275Z,102598.00
2023-04-19T20:29:56.956Z,102614.28
2023-04-19T20:32:24.171Z,102607.44
2023-04-19T20:34:52.023Z,102613.47
2023-04-19T20:37:18.572Z,102604.97
2023-04-19T20:39:45.174Z,102611.00
2023-04-19T20:42:11.608Z,102616.16
2023-04-19T20:44:37.944Z,102606.75
2023-04-19T20:47:04.348Z,102616.16
2023-04-19T20:49:30.926Z,102607.66
2023-04-19T20:51:57.368Z,102609.38
2023-04-19T20:54:23.776Z,102619.69
2023-04-19T20:56:52.567Z,102616.28
2023-04-19T20:59:19.280Z,102612.00
2023-04-19T21:01:46.035Z,102612.91
2023-04-19T21:04:12.964Z,102604.34
2023-04-19T21:06:39.404Z,102612.06
2023-04-19T21:09:05.828Z,102608.66
2023-04-19T21:11:32.234Z,102605.22
2023-04-19T21:13:58.587Z,102608.66
2023-04-19T21:16:25.143Z,102606.09
2023-04-19T21:18:51.682Z,102618.09
2023-04-19T21:21:18.037Z,102615.50
2023-04-19T21:23:44.423Z,102611.28
2023-04-19T21:26:11.668Z,102608.69
2023-04-19T21:28:38.122Z,102606.13
2023-04-19T21:31:04.477Z,102605.31
2023-04-19T21:33:31.000Z,102612.13
2023-04-19T21:35:57.342Z,102619.81
2023-04-19T21:38:23.804Z,102603.59
2023-04-19T21:40:51.903Z,102609.56
2023-04-19T21:43:18.371Z,102610.44
2023-04-19T21:45:44.756Z,102604.47
2023-04-19T21:48:11.383Z,102601.88
2023-04-19T21:50:37.777Z,102604.44
2023-04-19T21:53:04.243Z,102597.59
2023-04-19T21:55:32.488Z,102598.44
2023-04-19T21:57:59.070Z,102598.41
2023-04-19T22:00:25.552Z,102601.84
2023-04-19T22:02:52.080Z,102599.25
2023-04-19T22:05:18.630Z,102605.25
2023-04-19T22:07:45.052Z,102610.38
2023-04-19T22:10:13.666Z,102597.53
2023-04-19T22:12:51.313Z,102595.88
2023-04-19T22:15:25.797Z,102601.81
2023-04-19T22:17:52.253Z,102603.50
2023-04-19T22:20:18.851Z,102602.66
2023-04-19T22:22:45.374Z,102605.22
2023-04-19T22:25:11.777Z,102605.16
2023-04-19T22:27:38.266Z,102600.03
2023-04-19T22:30:05.596Z,102600.88
2023-04-19T22:32:32.169Z,102600.03
2023-04-19T22:34:58.632Z,102606.88
2023-04-19T22:37:25.091Z,102612.81
2023-04-19T22:39:51.578Z,102604.25
2023-04-19T22:42:18.060Z,102602.53
2023-04-19T22:44:44.501Z,102597.41
2023-04-19T22:47:11.771Z,102604.25
2023-04-19T22:49:38.189Z,102602.50
2023-04-19T22:52:04.704Z,102605.91
2023-04-19T22:54:31.187Z,102609.34
2023-04-19T22:56:58.368Z,102605.88
2023-04-19T22:59:24.946Z,102605.88
2023-04-19T23:01:51.464Z,102596.47
2023-04-19T23:04:18.846Z,102602.47
2023-04-19T23:06:48.540Z,102605.88
2023-04-19T23:09:15.681Z,102601.59
2023-04-19T23:11:42.425Z,102601.56
2023-04-19T23:14:10.310Z,102594.72
2023-04-19T23:16:38.588Z,102596.44
2023-04-19T23:19:07.362Z,102597.25
2023-04-19T23:21:34.506Z,102598.09
2023-04-19T23:24:01.102Z,102586.16
2023-04-19T23:26:27.518Z,102585.28
2023-04-19T23:28:53.952Z,102588.66
2023-04-19T23:31:20.458Z,102592.94
2023-04-19T23:33:46.872Z,102581.84
2023-04-19T23:36:13.258Z,102576.72
2023-04-19T23:38:39.621Z,102570.75
2023-04-19T23:41:06.043Z,102568.16
2023-04-19T23:43:32.520Z,102563.03
2023-04-19T23:45:58.930Z,102566.41
2023-04-19T23:48:25.409Z,102560.41
2023-04-19T23:50:51.787Z,102552.72
2023-04-19T23:53:18.187Z,102557.84
2023-04-19T23:55:44.614Z,102551.88
2023-04-19T23:58:11.202Z,102556.06
